sensor_id;sensor_type;location;lat;lon;timestamp;P1;durP1;ratioP1;P2;durP2;ratioP2
21128;SDS011;10722;51.910;8.352;2023-06-22T00:01:11;16.40;;;8.95;;
21128;SDS011;10722;51.910;8.352;2023-06-22T00:03:57;14.82;;;9.07;;
21128;SDS011;10722;51.910;8.352;2023-06-22T00:06:43;18.27;;;9.80;;
21128;SDS011;10722;51.910;8.352;2023-06-22T00:09:28;19.98;;;10.93;;
21128;SDS011;10722;51.910;8.352;2023-06-22T00:12:13;17.55;;;10.90;;
21128;SDS011;10722;51.910;8.352;2023-06-22T00:14:59;20.10;;;11.48;;
21128;SDS011;10722;51.910;8.352;2023-06-22T00:17:45;18.23;;;11.32;;
21128;SDS011;10722;51.910;8.352;2023-06-22T00:20:30;19.23;;;11.52;;
21128;SDS011;10722;51.910;8.352;2023-06-22T00:23:16;20.15;;;11.63;;
21128;SDS011;10722;51.910;8.352;2023-06-22T00:26:02;21.27;;;11.73;;
21128;SDS011;10722;51.910;8.352;2023-06-22T00:28:47;20.27;;;11.80;;
21128;SDS011;10722;51.910;8.352;2023-06-22T00:31:33;17.30;;;12.27;;
21128;SDS011;10722;51.910;8.352;2023-06-22T00:34:18;21.25;;;12.82;;
21128;SDS011;10722;51.910;8.352;2023-06-22T00:37:03;19.75;;;12.32;;
21128;SDS011;10722;51.910;8.352;2023-06-22T00:39:49;20.20;;;12.77;;
21128;SDS011;10722;51.910;8.352;2023-06-22T00:42:34;20.10;;;11.30;;
21128;SDS011;10722;51.910;8.352;2023-06-22T00:45:19;20.25;;;11.55;;
21128;SDS011;10722;51.910;8.352;2023-06-22T00:48:05;19.75;;;11.52;;
21128;SDS011;10722;51.910;8.352;2023-06-22T00:50:51;16.83;;;10.82;;
21128;SDS011;10722;51.910;8.352;2023-06-22T00:53:36;16.75;;;10.18;;
21128;SDS011;10722;51.910;8.352;2023-06-22T00:56:22;18.58;;;11.40;;
21128;SDS011;10722;51.910;8.352;2023-06-22T00:59:08;18.13;;;10.38;;
21128;SDS011;10722;51.910;8.352;2023-06-22T01:01:54;19.85;;;10.85;;
21128;SDS011;10722;51.910;8.352;2023-06-22T01:04:40;19.75;;;10.90;;
21128;SDS011;10722;51.910;8.352;2023-06-22T01:13:29;23.80;;;13.38;;
21128;SDS011;10722;51.910;8.352;2023-06-22T01:16:33;20.48;;;13.48;;
21128;SDS011;10722;51.910;8.352;2023-06-22T01:22:30;21.83;;;13.27;;
21128;SDS011;10722;51.910;8.352;2023-06-22T01:25:23;19.60;;;11.98;;
21128;SDS011;10722;51.910;8.352;2023-06-22T01:31:01;20.27;;;12.05;;
21128;SDS011;10722;51.910;8.352;2023-06-22T01:33:54;18.30;;;12.02;;
21128;SDS011;10722;51.910;8.352;2023-06-22T01:36:43;17.33;;;11.75;;
21128;SDS011;10722;51.910;8.352;2023-06-22T01:39:30;18.55;;;10.75;;
21128;SDS011;10722;51.910;8.352;2023-06-22T01:42:17;17.90;;;11.55;;
21128;SDS011;10722;51.910;8.352;2023-06-22T01:45:02;20.08;;;11.05;;
21128;SDS011;10722;51.910;8.352;2023-06-22T01:47:49;18.65;;;11.00;;
21128;SDS011;10722;51.910;8.352;2023-06-22T01:50:34;18.20;;;12.18;;
21128;SDS011;10722;51.910;8.352;2023-06-22T01:53:20;21.17;;;12.75;;
21128;SDS011;10722;51.910;8.352;2023-06-22T01:56:07;18.65;;;12.00;;
21128;SDS011;10722;51.910;8.352;2023-06-22T01:59:02;19.60;;;12.25;;
21128;SDS011;10722;51.910;8.352;2023-06-22T02:02:07;18.15;;;11.13;;
21128;SDS011;10722;51.910;8.352;2023-06-22T02:05:02;21.30;;;12.38;;
21128;SDS011;10722;51.910;8.352;2023-06-22T02:08:11;19.77;;;11.85;;
21128;SDS011;10722;51.910;8.352;2023-06-22T02:11:00;21.83;;;11.98;;
21128;SDS011;10722;51.910;8.352;2023-06-22T02:13:46;19.30;;;11.45;;
21128;SDS011;10722;51.910;8.352;2023-06-22T02:16:32;24.52;;;13.68;;
21128;SDS011;10722;51.910;8.352;2023-06-22T02:19:22;24.83;;;12.98;;
21128;SDS011;10722;51.910;8.352;2023-06-22T02:22:08;20.02;;;12.10;;
21128;SDS011;10722;51.910;8.352;2023-06-22T02:24:54;21.50;;;12.43;;
21128;SDS011;10722;51.910;8.352;2023-06-22T02:27:39;23.15;;;13.23;;
21128;SDS011;10722;51.910;8.352;2023-06-22T02:30:24;24.30;;;12.38;;
21128;SDS011;10722;51.910;8.352;2023-06-22T02:33:10;23.05;;;12.80;;
21128;SDS011;10722;51.910;8.352;2023-06-22T02:35:55;19.48;;;11.90;;
21128;SDS011;10722;51.910;8.352;2023-06-22T02:38:41;19.63;;;12.80;;
21128;SDS011;10722;51.910;8.352;2023-06-22T02:41:27;19.95;;;13.23;;
21128;SDS011;10722;51.910;8.352;2023-06-22T02:44:12;21.38;;;13.15;;
21128;SDS011;10722;51.910;8.352;2023-06-22T02:46:57;21.55;;;12.75;;
21128;SDS011;10722;51.910;8.352;2023-06-22T02:49:43;19.95;;;12.07;;
21128;SDS011;10722;51.910;8.352;2023-06-22T02:52:28;20.90;;;12.95;;
21128;SDS011;10722;51.910;8.352;2023-06-22T02:55:14;23.00;;;13.93;;
21128;SDS011;10722;51.910;8.352;2023-06-22T02:57:59;21.98;;;14.90;;
21128;SDS011;10722;51.910;8.352;2023-06-22T03:00:44;22.25;;;14.23;;
21128;SDS011;10722;51.910;8.352;2023-06-22T03:03:30;20.42;;;12.90;;
21128;SDS011;10722;51.910;8.352;2023-06-22T03:06:15;19.63;;;13.30;;
21128;SDS011;10722;51.910;8.352;2023-06-22T03:09:04;23.15;;;13.95;;
21128;SDS011;10722;51.910;8.352;2023-06-22T03:11:50;22.13;;;14.00;;
21128;SDS011;10722;51.910;8.352;2023-06-22T03:14:35;25.73;;;15.32;;
21128;SDS011;10722;51.910;8.352;2023-06-22T03:17:21;22.02;;;15.07;;
21128;SDS011;10722;51.910;8.352;2023-06-22T03:20:07;23.98;;;15.32;;
21128;SDS011;10722;51.910;8.352;2023-06-22T03:22:52;22.33;;;14.50;;
21128;SDS011;10722;51.910;8.352;2023-06-22T03:25:38;23.83;;;14.35;;
21128;SDS011;10722;51.910;8.352;2023-06-22T03:28:22;21.40;;;13.70;;
21128;SDS011;10722;51.910;8.352;2023-06-22T03:31:08;23.58;;;14.27;;
21128;SDS011;10722;51.910;8.352;2023-06-22T03:33:53;22.33;;;14.23;;
21128;SDS011;10722;51.910;8.352;2023-06-22T03:36:39;23.05;;;14.95;;
21128;SDS011;10722;51.910;8.352;2023-06-22T03:39:24;23.55;;;14.50;;
21128;SDS011;10722;51.910;8.352;2023-06-22T03:42:10;25.00;;;14.60;;
21128;SDS011;10722;51.910;8.352;2023-06-22T03:44:55;25.00;;;14.82;;
21128;SDS011;10722;51.910;8.352;2023-06-22T03:47:41;26.83;;;15.25;;
21128;SDS011;10722;51.910;8.352;2023-06-22T03:50:27;21.27;;;14.70;;
21128;SDS011;10722;51.910;8.352;2023-06-22T03:53:13;23.65;;;15.82;;
21128;SDS011;10722;51.910;8.352;2023-06-22T03:55:58;24.95;;;15.80;;
21128;SDS011;10722;51.910;8.352;2023-06-22T03:58:44;24.23;;;15.60;;
21128;SDS011;10722;51.910;8.352;2023-06-22T04:01:29;21.85;;;14.02;;
21128;SDS011;10722;51.910;8.352;2023-06-22T04:04:15;26.08;;;16.13;;
21128;SDS011;10722;51.910;8.352;2023-06-22T04:07:00;27.17;;;16.65;;
21128;SDS011;10722;51.910;8.352;2023-06-22T04:09:45;25.95;;;16.52;;
21128;SDS011;10722;51.910;8.352;2023-06-22T04:12:31;24.42;;;16.10;;
21128;SDS011;10722;51.910;8.352;2023-06-22T04:15:16;24.45;;;15.80;;
21128;SDS011;10722;51.910;8.352;2023-06-22T04:18:01;26.88;;;16.08;;
21128;SDS011;10722;51.910;8.352;2023-06-22T04:20:47;30.83;;;16.63;;
21128;SDS011;10722;51.910;8.352;2023-06-22T04:23:32;28.80;;;16.45;;
21128;SDS011;10722;51.910;8.352;2023-06-22T04:26:17;25.17;;;17.10;;
21128;SDS011;10722;51.910;8.352;2023-06-22T04:29:03;23.30;;;16.17;;
21128;SDS011;10722;51.910;8.352;2023-06-22T04:31:49;25.45;;;16.92;;
21128;SDS011;10722;51.910;8.352;2023-06-22T04:34:35;26.95;;;16.67;;
21128;SDS011;10722;51.910;8.352;2023-06-22T04:37:20;26.25;;;17.60;;
21128;SDS011;10722;51.910;8.352;2023-06-22T04:40:06;27.25;;;18.17;;
21128;SDS011;10722;51.910;8.352;2023-06-22T04:42:51;28.33;;;17.02;;
21128;SDS011;10722;51.910;8.352;2023-06-22T04:45:37;28.00;;;17.63;;
21128;SDS011;10722;51.910;8.352;2023-06-22T04:48:22;24.27;;;17.08;;
21128;SDS011;10722;51.910;8.352;2023-06-22T04:51:07;27.88;;;17.45;;
21128;SDS011;10722;51.910;8.352;2023-06-22T04:53:53;24.40;;;17.33;;
21128;SDS011;10722;51.910;8.352;2023-06-22T04:56:38;26.20;;;17.65;;
21128;SDS011;10722;51.910;8.352;2023-06-22T04:59:24;25.80;;;17.70;;
21128;SDS011;10722;51.910;8.352;2023-06-22T05:02:10;27.10;;;16.50;;
21128;SDS011;10722;51.910;8.352;2023-06-22T05:04:55;27.13;;;17.33;;
21128;SDS011;10722;51.910;8.352;2023-06-22T05:07:46;25.75;;;17.85;;
21128;SDS011;10722;51.910;8.352;2023-06-22T05:10:32;25.80;;;17.38;;
21128;SDS011;10722;51.910;8.352;2023-06-22T05:13:18;25.58;;;18.35;;
21128;SDS011;10722;51.910;8.352;2023-06-22T05:16:03;25.70;;;18.65;;
21128;SDS011;10722;51.910;8.352;2023-06-22T05:18:55;24.50;;;16.88;;
21128;SDS011;10722;51.910;8.352;2023-06-22T05:21:40;24.92;;;17.15;;
21128;SDS011;10722;51.910;8.352;2023-06-22T05:24:26;25.73;;;18.15;;
21128;SDS011;10722;51.910;8.352;2023-06-22T05:27:12;26.63;;;18.17;;
21128;SDS011;10722;51.910;8.352;2023-06-22T05:29:57;27.00;;;18.23;;
21128;SDS011;10722;51.910;8.352;2023-06-22T05:32:43;26.23;;;17.80;;
21128;SDS011;10722;51.910;8.352;2023-06-22T05:35:31;23.38;;;16.85;;
21128;SDS011;10722;51.910;8.352;2023-06-22T05:38:16;26.55;;;17.83;;
21128;SDS011;10722;51.910;8.352;2023-06-22T05:41:01;25.08;;;17.40;;
21128;SDS011;10722;51.910;8.352;2023-06-22T05:43:46;27.27;;;16.80;;
21128;SDS011;10722;51.910;8.352;2023-06-22T05:46:32;24.58;;;17.45;;
21128;SDS011;10722;51.910;8.352;2023-06-22T05:49:18;22.38;;;16.42;;
21128;SDS011;10722;51.910;8.352;2023-06-22T05:52:03;26.48;;;17.35;;
21128;SDS011;10722;51.910;8.352;2023-06-22T05:54:49;25.35;;;17.38;;
21128;SDS011;10722;51.910;8.352;2023-06-22T05:57:34;24.98;;;17.48;;
21128;SDS011;10722;51.910;8.352;2023-06-22T06:00:20;25.58;;;17.95;;
21128;SDS011;10722;51.910;8.352;2023-06-22T06:03:09;25.30;;;16.77;;
21128;SDS011;10722;51.910;8.352;2023-06-22T06:05:58;24.90;;;16.65;;
21128;SDS011;10722;51.910;8.352;2023-06-22T06:08:44;22.42;;;15.52;;
21128;SDS011;10722;51.910;8.352;2023-06-22T06:11:29;24.92;;;15.73;;
21128;SDS011;10722;51.910;8.352;2023-06-22T06:14:15;26.45;;;16.35;;
21128;SDS011;10722;51.910;8.352;2023-06-22T06:17:00;21.52;;;14.80;;
21128;SDS011;10722;51.910;8.352;2023-06-22T06:19:45;25.35;;;16.83;;
21128;SDS011;10722;51.910;8.352;2023-06-22T06:22:31;22.77;;;15.63;;
21128;SDS011;10722;51.910;8.352;2023-06-22T06:25:16;26.27;;;15.88;;
21128;SDS011;10722;51.910;8.352;2023-06-22T06:28:02;22.48;;;15.52;;
21128;SDS011;10722;51.910;8.352;2023-06-22T06:30:47;22.05;;;15.13;;
21128;SDS011;10722;51.910;8.352;2023-06-22T06:33:32;23.90;;;15.88;;
21128;SDS011;10722;51.910;8.352;2023-06-22T06:36:18;23.00;;;15.57;;
21128;SDS011;10722;51.910;8.352;2023-06-22T06:39:03;23.20;;;14.63;;
21128;SDS011;10722;51.910;8.352;2023-06-22T06:41:48;22.95;;;15.00;;
21128;SDS011;10722;51.910;8.352;2023-06-22T06:44:34;25.38;;;15.13;;
21128;SDS011;10722;51.910;8.352;2023-06-22T06:47:19;23.42;;;14.48;;
21128;SDS011;10722;51.910;8.352;2023-06-22T06:50:05;19.60;;;13.50;;
21128;SDS011;10722;51.910;8.352;2023-06-22T06:52:51;19.45;;;13.65;;
21128;SDS011;10722;51.910;8.352;2023-06-22T06:55:37;21.38;;;13.82;;
21128;SDS011;10722;51.910;8.352;2023-06-22T06:58:22;21.90;;;13.45;;
21128;SDS011;10722;51.910;8.352;2023-06-22T07:01:07;56.00;;;46.25;;
21128;SDS011;10722;51.910;8.352;2023-06-22T07:03:53;23.33;;;15.45;;
21128;SDS011;10722;51.910;8.352;2023-06-22T07:06:39;17.98;;;12.10;;
21128;SDS011;10722;51.910;8.352;2023-06-22T07:09:24;18.83;;;12.00;;
21128;SDS011;10722;51.910;8.352;2023-06-22T07:12:09;19.92;;;12.10;;
21128;SDS011;10722;51.910;8.352;2023-06-22T07:15:00;19.98;;;12.07;;
21128;SDS011;10722;51.910;8.352;2023-06-22T07:17:55;19.52;;;12.57;;
21128;SDS011;10722;51.910;8.352;2023-06-22T07:20:40;18.83;;;11.98;;
21128;SDS011;10722;51.910;8.352;2023-06-22T07:23:26;21.55;;;13.60;;
21128;SDS011;10722;51.910;8.352;2023-06-22T07:26:11;19.48;;;13.85;;
21128;SDS011;10722;51.910;8.352;2023-06-22T07:28:57;21.65;;;15.63;;
21128;SDS011;10722;51.910;8.352;2023-06-22T07:31:42;23.00;;;15.95;;
21128;SDS011;10722;51.910;8.352;2023-06-22T07:34:27;23.25;;;16.88;;
21128;SDS011;10722;51.910;8.352;2023-06-22T07:37:13;21.92;;;16.20;;
21128;SDS011;10722;51.910;8.352;2023-06-22T07:39:58;22.60;;;16.80;;
21128;SDS011;10722;51.910;8.352;2023-06-22T07:42:44;25.17;;;16.92;;
21128;SDS011;10722;51.910;8.352;2023-06-22T07:45:29;23.08;;;15.55;;
21128;SDS011;10722;51.910;8.352;2023-06-22T07:48:15;23.00;;;15.25;;
21128;SDS011;10722;51.910;8.352;2023-06-22T07:51:00;22.85;;;15.73;;
21128;SDS011;10722;51.910;8.352;2023-06-22T07:53:45;22.05;;;15.55;;
21128;SDS011;10722;51.910;8.352;2023-06-22T07:56:31;23.58;;;15.52;;
21128;SDS011;10722;51.910;8.352;2023-06-22T07:59:16;23.65;;;16.92;;
21128;SDS011;10722;51.910;8.352;2023-06-22T08:02:02;25.95;;;17.45;;
21128;SDS011;10722;51.910;8.352;2023-06-22T08:04:47;23.27;;;16.75;;
21128;SDS011;10722;51.910;8.352;2023-06-22T08:07:32;22.83;;;16.30;;
21128;SDS011;10722;51.910;8.352;2023-06-22T08:10:18;23.45;;;15.65;;
21128;SDS011;10722;51.910;8.352;2023-06-22T08:13:04;25.05;;;18.92;;
21128;SDS011;10722;51.910;8.352;2023-06-22T08:15:49;23.60;;;16.48;;
21128;SDS011;10722;51.910;8.352;2023-06-22T08:18:34;22.80;;;16.13;;
21128;SDS011;10722;51.910;8.352;2023-06-22T08:21:20;21.20;;;15.80;;
21128;SDS011;10722;51.910;8.352;2023-06-22T08:24:05;21.08;;;15.80;;
21128;SDS011;10722;51.910;8.352;2023-06-22T08:26:51;23.80;;;15.43;;
21128;SDS011;10722;51.910;8.352;2023-06-22T08:29:37;21.15;;;14.57;;
21128;SDS011;10722;51.910;8.352;2023-06-22T08:32:23;20.92;;;14.32;;
21128;SDS011;10722;51.910;8.352;2023-06-22T08:35:08;21.95;;;15.65;;
21128;SDS011;10722;51.910;8.352;2023-06-22T08:37:53;19.60;;;12.50;;
21128;SDS011;10722;51.910;8.352;2023-06-22T08:40:38;18.00;;;11.65;;
21128;SDS011;10722;51.910;8.352;2023-06-22T08:43:24;18.35;;;12.45;;
21128;SDS011;10722;51.910;8.352;2023-06-22T08:46:09;20.17;;;13.10;;
21128;SDS011;10722;51.910;8.352;2023-06-22T08:48:56;20.95;;;12.32;;
21128;SDS011;10722;51.910;8.352;2023-06-22T08:51:41;16.50;;;10.10;;
21128;SDS011;10722;51.910;8.352;2023-06-22T08:54:27;18.02;;;9.80;;
21128;SDS011;10722;51.910;8.352;2023-06-22T08:57:12;17.27;;;10.48;;
21128;SDS011;10722;51.910;8.352;2023-06-22T08:59:58;15.77;;;9.05;;
21128;SDS011;10722;51.910;8.352;2023-06-22T09:02:44;16.55;;;9.13;;
21128;SDS011;10722;51.910;8.352;2023-06-22T09:05:30;13.30;;;7.97;;
21128;SDS011;10722;51.910;8.352;2023-06-22T09:08:16;16.52;;;8.65;;
21128;SDS011;10722;51.910;8.352;2023-06-22T09:11:01;14.68;;;8.50;;
21128;SDS011;10722;51.910;8.352;2023-06-22T09:13:46;14.88;;;8.15;;
21128;SDS011;10722;51.910;8.352;2023-06-22T09:16:32;15.00;;;8.73;;
21128;SDS011;10722;51.910;8.352;2023-06-22T09:19:17;13.88;;;7.95;;
21128;SDS011;10722;51.910;8.352;2023-06-22T09:22:02;15.45;;;7.82;;
21128;SDS011;10722;51.910;8.352;2023-06-22T09:24:48;14.82;;;8.00;;
21128;SDS011;10722;51.910;8.352;2023-06-22T09:27:33;15.45;;;8.40;;
21128;SDS011;10722;51.910;8.352;2023-06-22T09:30:18;16.00;;;8.77;;
21128;SDS011;10722;51.910;8.352;2023-06-22T09:33:04;13.80;;;8.23;;
21128;SDS011;10722;51.910;8.352;2023-06-22T09:35:49;16.08;;;8.90;;
21128;SDS011;10722;51.910;8.352;2023-06-22T09:38:38;15.68;;;9.60;;
21128;SDS011;10722;51.910;8.352;2023-06-22T09:41:23;17.15;;;9.60;;
21128;SDS011;10722;51.910;8.352;2023-06-22T09:44:08;13.60;;;8.43;;
21128;SDS011;10722;51.910;8.352;2023-06-22T09:46:54;14.18;;;7.78;;
21128;SDS011;10722;51.910;8.352;2023-06-22T09:49:39;17.48;;;8.75;;
21128;SDS011;10722;51.910;8.352;2023-06-22T09:52:28;14.85;;;7.68;;
21128;SDS011;10722;51.910;8.352;2023-06-22T09:55:31;14.77;;;8.30;;
21128;SDS011;10722;51.910;8.352;2023-06-22T09:58:16;16.45;;;7.75;;
21128;SDS011;10722;51.910;8.352;2023-06-22T10:01:02;14.30;;;7.82;;
21128;SDS011;10722;51.910;8.352;2023-06-22T10:03:47;13.40;;;7.63;;
21128;SDS011;10722;51.910;8.352;2023-06-22T10:06:32;14.82;;;8.13;;
21128;SDS011;10722;51.910;8.352;2023-06-22T10:09:18;14.45;;;8.35;;
21128;SDS011;10722;51.910;8.352;2023-06-22T10:12:03;16.13;;;8.55;;
21128;SDS011;10722;51.910;8.352;2023-06-22T10:14:49;12.82;;;6.95;;
21128;SDS011;10722;51.910;8.352;2023-06-22T10:17:35;16.67;;;8.13;;
21128;SDS011;10722;51.910;8.352;2023-06-22T10:20:20;15.10;;;8.70;;
21128;SDS011;10722;51.910;8.352;2023-06-22T10:23:06;15.05;;;8.07;;
21128;SDS011;10722;51.910;8.352;2023-06-22T10:25:51;14.70;;;8.15;;
21128;SDS011;10722;51.910;8.352;2023-06-22T10:28:37;15.10;;;8.75;;
21128;SDS011;10722;51.910;8.352;2023-06-22T10:31:22;16.00;;;9.50;;
21128;SDS011;10722;51.910;8.352;2023-06-22T10:34:07;14.25;;;8.57;;
21128;SDS011;10722;51.910;8.352;2023-06-22T10:36:53;14.77;;;9.38;;
21128;SDS011;10722;51.910;8.352;2023-06-22T10:39:38;15.25;;;9.25;;
21128;SDS011;10722;51.910;8.352;2023-06-22T10:42:24;15.35;;;9.02;;
21128;SDS011;10722;51.910;8.352;2023-06-22T10:45:09;15.10;;;8.70;;
21128;SDS011;10722;51.910;8.352;2023-06-22T10:47:55;15.75;;;8.85;;
21128;SDS011;10722;51.910;8.352;2023-06-22T10:50:40;16.77;;;9.52;;
21128;SDS011;10722;51.910;8.352;2023-06-22T10:53:25;16.10;;;8.73;;
21128;SDS011;10722;51.910;8.352;2023-06-22T10:56:11;14.18;;;7.93;;
21128;SDS011;10722;51.910;8.352;2023-06-22T10:58:56;15.35;;;8.02;;
21128;SDS011;10722;51.910;8.352;2023-06-22T11:01:42;14.80;;;8.00;;
21128;SDS011;10722;51.910;8.352;2023-06-22T11:04:27;16.73;;;8.82;;
21128;SDS011;10722;51.910;8.352;2023-06-22T11:07:13;14.27;;;7.80;;
21128;SDS011;10722;51.910;8.352;2023-06-22T11:09:58;15.50;;;8.02;;
21128;SDS011;10722;51.910;8.352;2023-06-22T11:12:44;15.77;;;9.07;;
21128;SDS011;10722;51.910;8.352;2023-06-22T11:15:29;14.18;;;8.93;;
21128;SDS011;10722;51.910;8.352;2023-06-22T11:18:15;15.50;;;9.00;;
21128;SDS011;10722;51.910;8.352;2023-06-22T11:21:00;15.10;;;8.57;;
21128;SDS011;10722;51.910;8.352;2023-06-22T11:23:45;14.18;;;8.30;;
21128;SDS011;10722;51.910;8.352;2023-06-22T11:26:30;17.23;;;9.07;;
21128;SDS011;10722;51.910;8.352;2023-06-22T11:29:16;14.93;;;8.32;;
21128;SDS011;10722;51.910;8.352;2023-06-22T11:32:20;14.70;;;8.70;;
21128;SDS011;10722;51.910;8.352;2023-06-22T11:35:05;16.55;;;9.25;;
21128;SDS011;10722;51.910;8.352;2023-06-22T11:37:51;16.08;;;8.70;;
21128;SDS011;10722;51.910;8.352;2023-06-22T11:40:36;15.07;;;8.32;;
21128;SDS011;10722;51.910;8.352;2023-06-22T11:43:21;15.80;;;9.02;;
21128;SDS011;10722;51.910;8.352;2023-06-22T11:46:07;17.35;;;9.88;;
21128;SDS011;10722;51.910;8.352;2023-06-22T11:48:52;19.55;;;9.15;;
21128;SDS011;10722;51.910;8.352;2023-06-22T11:51:38;15.40;;;9.57;;
21128;SDS011;10722;51.910;8.352;2023-06-22T11:54:23;15.23;;;9.00;;
21128;SDS011;10722;51.910;8.352;2023-06-22T11:57:09;16.08;;;9.38;;
21128;SDS011;10722;51.910;8.352;2023-06-22T11:59:54;15.27;;;8.80;;
21128;SDS011;10722;51.910;8.352;2023-06-22T12:02:39;15.32;;;8.38;;
21128;SDS011;10722;51.910;8.352;2023-06-22T12:05:25;15.55;;;8.75;;
21128;SDS011;10722;51.910;8.352;2023-06-22T12:08:10;16.02;;;9.55;;
21128;SDS011;10722;51.910;8.352;2023-06-22T12:10:55;15.88;;;9.23;;
21128;SDS011;10722;51.910;8.352;2023-06-22T12:13:41;15.80;;;9.10;;
21128;SDS011;10722;51.910;8.352;2023-06-22T12:16:26;14.38;;;8.68;;
21128;SDS011;10722;51.910;8.352;2023-06-22T12:19:12;17.73;;;8.98;;
21128;SDS011;10722;51.910;8.352;2023-06-22T12:21:58;18.10;;;9.98;;
21128;SDS011;10722;51.910;8.352;2023-06-22T12:24:43;17.00;;;10.30;;
21128;SDS011;10722;51.910;8.352;2023-06-22T12:27:28;17.30;;;10.35;;
21128;SDS011;10722;51.910;8.352;2023-06-22T12:30:15;17.75;;;9.80;;
21128;SDS011;10722;51.910;8.352;2023-06-22T12:33:01;15.35;;;9.52;;
21128;SDS011;10722;51.910;8.352;2023-06-22T12:35:47;15.25;;;9.77;;
21128;SDS011;10722;51.910;8.352;2023-06-22T12:38:32;16.23;;;9.98;;
21128;SDS011;10722;51.910;8.352;2023-06-22T12:41:18;15.45;;;10.27;;
21128;SDS011;10722;51.910;8.352;2023-06-22T12:44:03;17.98;;;10.43;;
21128;SDS011;10722;51.910;8.352;2023-06-22T12:46:48;17.17;;;10.40;;
21128;SDS011;10722;51.910;8.352;2023-06-22T12:49:34;17.27;;;10.15;;
21128;SDS011;10722;51.910;8.352;2023-06-22T12:52:23;16.58;;;11.15;;
21128;SDS011;10722;51.910;8.352;2023-06-22T12:55:09;18.58;;;10.75;;
21128;SDS011;10722;51.910;8.352;2023-06-22T12:57:55;17.85;;;10.88;;
21128;SDS011;10722;51.910;8.352;2023-06-22T13:00:40;30.17;;;24.23;;
21128;SDS011;10722;51.910;8.352;2023-06-22T13:03:26;35.90;;;29.13;;
21128;SDS011;10722;51.910;8.352;2023-06-22T13:06:11;20.90;;;14.95;;
21128;SDS011;10722;51.910;8.352;2023-06-22T13:08:56;24.13;;;16.85;;
21128;SDS011;10722;51.910;8.352;2023-06-22T13:12:02;24.02;;;18.52;;
21128;SDS011;10722;51.910;8.352;2023-06-22T13:14:48;27.08;;;19.95;;
21128;SDS011;10722;51.910;8.352;2023-06-22T13:17:33;27.30;;;21.05;;
21128;SDS011;10722;51.910;8.352;2023-06-22T13:20:19;27.50;;;21.70;;
21128;SDS011;10722;51.910;8.352;2023-06-22T13:23:04;32.08;;;21.55;;
21128;SDS011;10722;51.910;8.352;2023-06-22T13:25:50;28.58;;;21.55;;
21128;SDS011;10722;51.910;8.352;2023-06-22T13:28:35;32.30;;;22.73;;
21128;SDS011;10722;51.910;8.352;2023-06-22T13:31:21;28.25;;;22.48;;
21128;SDS011;10722;51.910;8.352;2023-06-22T13:34:07;38.72;;;27.65;;
21128;SDS011;10722;51.910;8.352;2023-06-22T13:36:52;34.30;;;25.52;;
21128;SDS011;10722;51.910;8.352;2023-06-22T13:39:39;35.80;;;27.10;;
21128;SDS011;10722;51.910;8.352;2023-06-22T13:42:25;35.72;;;27.33;;
21128;SDS011;10722;51.910;8.352;2023-06-22T13:45:10;43.83;;;33.40;;
21128;SDS011;10722;51.910;8.352;2023-06-22T13:47:55;40.47;;;31.83;;
21128;SDS011;10722;51.910;8.352;2023-06-22T13:50:41;37.95;;;31.95;;
21128;SDS011;10722;51.910;8.352;2023-06-22T13:53:26;42.53;;;34.63;;
21128;SDS011;10722;51.910;8.352;2023-06-22T13:56:12;43.88;;;35.88;;
21128;SDS011;10722;51.910;8.352;2023-06-22T13:58:57;40.97;;;33.50;;
21128;SDS011;10722;51.910;8.352;2023-06-22T14:01:42;44.40;;;35.13;;
21128;SDS011;10722;51.910;8.352;2023-06-22T14:04:28;47.30;;;37.38;;
21128;SDS011;10722;51.910;8.352;2023-06-22T14:07:13;46.17;;;37.72;;
21128;SDS011;10722;51.910;8.352;2023-06-22T14:09:59;42.70;;;35.30;;
21128;SDS011;10722;51.910;8.352;2023-06-22T14:12:45;42.83;;;34.58;;
21128;SDS011;10722;51.910;8.352;2023-06-22T14:15:30;43.35;;;35.08;;
21128;SDS011;10722;51.910;8.352;2023-06-22T14:18:16;44.53;;;35.10;;
21128;SDS011;10722;51.910;8.352;2023-06-22T14:21:02;41.72;;;33.10;;
21128;SDS011;10722;51.910;8.352;2023-06-22T14:23:47;41.08;;;33.33;;
21128;SDS011;10722;51.910;8.352;2023-06-22T14:26:32;39.08;;;31.55;;
21128;SDS011;10722;51.910;8.352;2023-06-22T14:29:18;39.70;;;32.13;;
21128;SDS011;10722;51.910;8.352;2023-06-22T14:32:03;41.50;;;33.22;;
21128;SDS011;10722;51.910;8.352;2023-06-22T14:34:49;44.90;;;35.28;;
21128;SDS011;10722;51.910;8.352;2023-06-22T14:37:34;44.10;;;35.42;;
21128;SDS011;10722;51.910;8.352;2023-06-22T14:40:20;47.97;;;37.28;;
21128;SDS011;10722;51.910;8.352;2023-06-22T14:43:07;44.33;;;35.95;;
21128;SDS011;10722;51.910;8.352;2023-06-22T14:45:52;40.75;;;32.55;;
21128;SDS011;10722;51.910;8.352;2023-06-22T14:48:38;38.75;;;32.08;;
21128;SDS011;10722;51.910;8.352;2023-06-22T14:51:23;37.47;;;30.33;;
21128;SDS011;10722;51.910;8.352;2023-06-22T14:54:09;34.92;;;27.65;;
21128;SDS011;10722;51.910;8.352;2023-06-22T14:56:54;36.00;;;26.25;;
21128;SDS011;10722;51.910;8.352;2023-06-22T14:59:39;29.83;;;22.95;;
21128;SDS011;10722;51.910;8.352;2023-06-22T15:02:25;30.88;;;23.42;;
21128;SDS011;10722;51.910;8.352;2023-06-22T15:05:10;30.13;;;22.88;;
21128;SDS011;10722;51.910;8.352;2023-06-22T15:07:56;28.88;;;23.25;;
21128;SDS011;10722;51.910;8.352;2023-06-22T15:10:41;27.35;;;21.95;;
21128;SDS011;10722;51.910;8.352;2023-06-22T15:13:26;25.73;;;18.80;;
21128;SDS011;10722;51.910;8.352;2023-06-22T15:16:12;24.17;;;19.13;;
21128;SDS011;10722;51.910;8.352;2023-06-22T15:18:57;25.35;;;17.90;;
21128;SDS011;10722;51.910;8.352;2023-06-22T15:21:43;22.70;;;17.05;;
21128;SDS011;10722;51.910;8.352;2023-06-22T15:24:28;21.08;;;14.95;;
21128;SDS011;10722;51.910;8.352;2023-06-22T15:27:14;23.80;;;15.20;;
21128;SDS011;10722;51.910;8.352;2023-06-22T15:29:59;21.35;;;15.65;;
21128;SDS011;10722;51.910;8.352;2023-06-22T15:32:45;22.83;;;16.20;;
21128;SDS011;10722;51.910;8.352;2023-06-22T15:35:30;22.27;;;16.38;;
21128;SDS011;10722;51.910;8.352;2023-06-22T15:38:15;23.10;;;16.98;;
21128;SDS011;10722;51.910;8.352;2023-06-22T15:41:01;24.48;;;17.17;;
21128;SDS011;10722;51.910;8.352;2023-06-22T15:43:46;23.40;;;17.50;;
21128;SDS011;10722;51.910;8.352;2023-06-22T15:46:32;22.42;;;16.90;;
21128;SDS011;10722;51.910;8.352;2023-06-22T15:49:17;24.08;;;17.95;;
21128;SDS011;10722;51.910;8.352;2023-06-22T15:52:03;23.90;;;17.85;;
21128;SDS011;10722;51.910;8.352;2023-06-22T15:54:49;25.85;;;18.77;;
21128;SDS011;10722;51.910;8.352;2023-06-22T15:57:34;24.00;;;18.13;;
21128;SDS011;10722;51.910;8.352;2023-06-22T16:00:20;24.10;;;17.90;;
21128;SDS011;10722;51.910;8.352;2023-06-22T16:03:05;23.52;;;17.58;;
21128;SDS011;10722;51.910;8.352;2023-06-22T16:05:50;24.50;;;18.48;;
21128;SDS011;10722;51.910;8.352;2023-06-22T16:08:35;23.77;;;18.33;;
21128;SDS011;10722;51.910;8.352;2023-06-22T16:11:21;25.23;;;18.65;;
21128;SDS011;10722;51.910;8.352;2023-06-22T16:14:06;23.45;;;18.10;;
21128;SDS011;10722;51.910;8.352;2023-06-22T16:16:52;25.70;;;19.10;;
21128;SDS011;10722;51.910;8.352;2023-06-22T16:19:37;25.15;;;18.95;;
21128;SDS011;10722;51.910;8.352;2023-06-22T16:22:22;26.50;;;20.15;;
21128;SDS011;10722;51.910;8.352;2023-06-22T16:25:09;25.45;;;19.70;;